Meteo Giornale » Osservazioni meteo Italia » Roma Fiumicino

ore: 02:20 - Osservazioni Meteo Roma Fiumicino
Lat. 41° 48' N Lon. 12° 14' E Alt. 2 metri s.l.m.

sereno Europe/Rome

20 °C

Sereno

Temp. 24 Ore

17 °C

31 °C

Nord

11.1 Km/h

Dew point 15 °C

Umidità 72 %

Visibilità  10 Km

Il sole sorge alle ore 05:34

Il sole tramonta alle ore 20:50

Data e Ora Cielo e Fenomeni T °C DP °C Um. % Pres. hPa Vis. km Vento km/h
Oggi h: 02:20 sereno Sereno 20 15 72 1014 10 N 11.1
Oggi h: 01:50 sereno Sereno 20 15 72 1014 10 N/NE 11.1
Oggi h: 01:20 sereno Sereno 21 15 68 1015 10 N 9.3
Oggi h: 00:50 sereno Sereno 21 17 77 1015 10 N/NE 11.1
Oggi h: 00:20 sereno Sereno 21 17 77 1015 10 N 5.5
Ieri h: 23:50 sereno Sereno 22 17 73 1015 10 E 9.3
Ieri h: 23:20 sereno Sereno 22 17 73 1014 10 N 5.5
Ieri h: 22:50 sereno Sereno 22 18 78 1014 10 N 5.5
Ieri h: 22:20 sereno Sereno 21 18 82 1014 10 N 3.7
Ieri h: 21:50 sereno Sereno 22 19 83 1014 10 N/NO 11.1
Ieri h: 21:20 sereno Sereno 25 17 61 1013 10 S 7.4
Ieri h: 20:50 sereno Sereno 26 16 54 1013 10 S/SE 9.3
Ieri h: 20:20 sereno Sereno 27 16 50 1013 10 N 5.5
Ieri h: 19:50 sereno Sereno 27 16 50 1012 10 S 7.4
Ieri h: 19:20 sereno Sereno 27 15 47 1012 10 N 5.5
Ieri h: 18:50 sereno Sereno 27 16 50 1012 10 E/SE 7.4
Ieri h: 18:20 sereno Sereno 27 17 54 1012 10 E/SE 16.7
Ieri h: 17:50 sereno Sereno 28 15 45 1012 10 N 5.5
Ieri h: 17:20 nuvoloso Rovescio nelle Vicinanze 28 15 45 1013 10 N 7.4
Ieri h: 16:50 nuvoloso Nuvoloso 26 17 57 1012 10 NO 11.1
Ieri h: 16:20 nuvoloso Nuvoloso 26 15 50 1012 10 O/NO 18.5
Ieri h: 14:50 nuvoloso Nuvoloso 29 15 42 1012 10 O/SO 22.2
Ieri h: 14:20 nuvoloso Nuvoloso 30 15 40 1012 10 O/SO 22.2
Ieri h: 13:50 poco_nuvoloso Poco Nuvoloso 29 15 42 1012 10 O/SO 22.2
Ieri h: 13:20 poco_nuvoloso Poco Nuvoloso 29 14 39 1012 10 O/SO 20.3
Ieri h: 12:50 poco_nuvoloso Poco Nuvoloso 29 16 45 1012 10 O 13
Ieri h: 12:20 sereno Sereno 31 11 29 1012 10 N 9.3
Ieri h: 11:50 sereno Sereno 30 13 35 1012 10 E/NE 13
Ieri h: 11:20 sereno Sereno 30 14 37 1012 10 E/NE 16.7
Ieri h: 10:50 sereno Sereno 29 13 37 1012 10 E/NE 14.8
Ieri h: 10:20 sereno Sereno 29 13 37 1012 10 NE 11.1
Ieri h: 09:50 sereno Sereno 27 13 42 1012 10 NE 14.8
Ieri h: 09:20 sereno Sereno 26 13 44 1013 10 N/NE 13
Ieri h: 08:50 sereno Sereno 25 14 50 1013 10 NE 9.3
Ieri h: 08:20 sereno Sereno 24 14 53 1013 10 NE 11.1
Ieri h: 07:50 sereno Sereno 23 14 56 1013 10 N/NE 11.1
Ieri h: 07:20 sereno Sereno 21 16 73 1013 10 N/NO 7.4
Ieri h: 06:50 sereno Sereno 20 17 82 1013 10 N/NE 7.4
Ieri h: 06:20 sereno Sereno 18 16 88 1013 10 NE 7.4
Ieri h: 05:50 sereno Sereno 17 15 88 1012 10 N 5.5
Ieri h: 05:20 sereno Sereno 18 16 88 1012 10 N 3.7
Ieri h: 04:50 sereno Sereno 18 16 88 1012 10 N 3.7
Ieri h: 04:20 sereno Sereno 19 16 82 1012 10 N 3.7
Ieri h: 03:50 sereno Sereno 18 16 88 1012 10 N 5.5
Ieri h: 03:20 sereno Sereno 18 16 88 1012 10 N 5.5
Ieri h: 02:50 sereno Sereno 19 17 88 1012 10 N 3.7